Time;durP1;ratioP1;P1;durP2;ratioP2;P2;SDS_P1;SDS_P2;PMS_P1;PMS_P2;Temp;Humidity;BMP_temperature;BMP_pressure;BME280_temperature;BME280_humidity;BME280_pressure;Samples;Min_cycle;Max_cycle;Signal;HPM_P1;HPM_P2
2022/07/02 00:02:00;;;;;;;11.30;10.63;;;12.50;99.90;;;;;;4993688;28;20235;-74
2022/07/02 00:04:30;;;;;;;11.67;10.87;;;12.50;99.90;;;;;;4994063;28;20180;-75
2022/07/02 00:06:56;;;;;;;12.03;10.93;;;12.50;99.90;;;;;;4993094;28;20241;-74
2022/07/02 00:09:24;;;;;;;12.07;11.10;;;12.40;99.90;;;;;;4994590;28;20180;-77
2022/07/02 00:11:51;;;;;;;12.70;11.97;;;12.40;99.90;;;;;;4994467;28;20191;-77
2022/07/02 00:14:18;;;;;;;19.40;18.07;;;12.40;99.90;;;;;;5010488;28;20219;-77
2022/07/02 00:16:47;;;;;;;23.63;22.13;;;12.30;99.90;;;;;;5010287;28;20207;-77
2022/07/02 00:19:14;;;;;;;23.53;22.17;;;12.30;99.90;;;;;;4995384;28;20277;-77
2022/07/02 00:21:40;;;;;;;22.83;21.37;;;12.30;99.90;;;;;;5011098;28;20185;-77
2022/07/02 00:24:07;;;;;;;25.97;24.53;;;12.20;99.90;;;;;;5011236;28;20564;-77
2022/07/02 00:26:41;;;;;;;26.63;25.07;;;12.20;99.90;;;;;;4994455;28;20266;-76
2022/07/02 00:29:32;;;;;;;27.97;26.33;;;12.10;99.90;;;;;;5011986;28;20245;-77
2022/07/02 00:31:59;;;;;;;29.07;27.53;;;12.10;99.90;;;;;;4993080;28;20193;-76
2022/07/02 00:34:25;;;;;;;27.00;25.53;;;12.10;99.90;;;;;;5007523;28;20190;-77
2022/07/02 00:36:51;;;;;;;22.47;21.07;;;12.00;99.90;;;;;;4996412;28;20208;-77
2022/07/02 00:39:17;;;;;;;16.73;15.00;;;11.90;99.90;;;;;;4996791;28;20329;-78
2022/07/02 00:41:47;;;;;;;16.63;15.80;;;11.90;99.90;;;;;;4996714;28;20177;-78
2022/07/02 00:44:14;;;;;;;15.50;14.60;;;11.90;99.90;;;;;;4989876;28;20185;-78
2022/07/02 00:46:42;;;;;;;13.37;12.60;;;11.80;99.90;;;;;;4976387;28;20212;-78
2022/07/02 00:49:09;;;;;;;11.90;10.83;;;11.80;99.90;;;;;;4991901;28;20233;-77
2022/07/02 00:51:34;;;;;;;11.23;10.60;;;11.70;99.90;;;;;;4983441;28;20305;-77
2022/07/02 00:54:02;;;;;;;12.47;11.47;;;11.70;99.90;;;;;;4979877;28;20189;-77
2022/07/02 00:56:28;;;;;;;10.70;10.00;;;11.70;99.90;;;;;;4976126;28;20251;-77
2022/07/02 00:58:53;;;;;;;12.47;10.93;;;11.60;99.90;;;;;;5001190;28;20733;-77
2022/07/02 01:01:19;;;;;;;15.40;14.30;;;11.70;99.90;;;;;;4994690;28;20176;-77
2022/07/02 01:03:48;;;;;;;14.30;13.03;;;11.70;99.90;;;;;;4994618;28;20266;-77
2022/07/02 01:06:15;;;;;;;15.97;13.47;;;11.70;99.90;;;;;;4994843;28;20214;-77
2022/07/02 01:11:29;;;;;;;16.67;15.37;;;11.60;99.90;;;;;;4994235;28;20188;-76
2022/07/02 01:13:55;;;;;;;11.80;10.73;;;11.60;99.90;;;;;;4993006;28;20188;-76
2022/07/02 01:16:21;;;;;;;11.03;9.90;;;11.60;99.90;;;;;;5007674;28;20200;-76
2022/07/02 01:18:47;;;;;;;13.07;12.17;;;11.50;99.90;;;;;;4993579;28;20215;-76
2022/07/02 01:21:13;;;;;;;12.73;11.87;;;11.40;99.90;;;;;;5000398;28;20246;-75
2022/07/02 01:23:38;;;;;;;15.33;13.77;;;11.40;99.90;;;;;;5002967;28;20634;-76
2022/07/02 01:26:05;;;;;;;15.43;14.13;;;11.40;99.90;;;;;;4996279;28;20228;-77
2022/07/02 01:28:30;;;;;;;14.23;13.37;;;11.40;99.90;;;;;;5000386;28;20196;-76
2022/07/02 01:30:56;;;;;;;17.33;16.33;;;11.40;99.90;;;;;;5000197;28;20216;-77
2022/07/02 01:33:22;;;;;;;25.40;23.57;;;11.30;99.90;;;;;;5007772;28;20176;-77
2022/07/02 01:35:48;;;;;;;22.20;20.67;;;11.30;99.90;;;;;;4991929;28;20213;-76
2022/07/02 01:38:14;;;;;;;20.57;19.07;;;11.40;99.90;;;;;;4988188;28;20226;-76
2022/07/02 01:40:40;;;;;;;17.77;16.53;;;11.30;99.90;;;;;;4989518;28;20189;-76
2022/07/02 01:43:06;;;;;;;17.13;16.20;;;11.30;99.90;;;;;;4991405;28;20177;-77
2022/07/02 01:45:32;;;;;;;19.17;17.50;;;11.20;99.90;;;;;;4992809;28;20213;-76
2022/07/02 01:47:57;;;;;;;18.37;16.93;;;11.20;99.90;;;;;;4991950;28;20617;-77
2022/07/02 01:50:23;;;;;;;20.57;19.10;;;11.20;99.90;;;;;;4991766;28;20225;-76
2022/07/02 01:52:51;;;;;;;22.03;20.63;;;11.20;99.90;;;;;;4992385;28;20649;-76
2022/07/02 01:55:17;;;;;;;22.67;21.07;;;11.20;99.90;;;;;;4991132;28;20299;-77
2022/07/02 01:57:43;;;;;;;15.57;14.47;;;11.20;99.90;;;;;;4992606;28;20277;-77
2022/07/02 02:00:12;;;;;;;23.40;21.63;;;11.20;99.90;;;;;;5007990;28;20188;-76
2022/07/02 02:02:38;;;;;;;28.97;27.20;;;11.20;99.90;;;;;;4991400;28;20616;-77
2022/07/02 02:05:04;;;;;;;24.93;23.73;;;11.20;99.90;;;;;;4992566;28;20190;-76
2022/07/02 02:07:33;;;;;;;19.13;18.23;;;11.20;99.90;;;;;;4990639;28;20196;-77
2022/07/02 02:09:58;;;;;;;12.13;11.47;;;11.20;99.90;;;;;;4993702;28;20226;-76
2022/07/02 02:12:24;;;;;;;19.37;18.37;;;11.10;99.90;;;;;;4994360;28;20180;-76
2022/07/02 02:14:50;;;;;;;21.77;20.67;;;11.00;99.90;;;;;;4993967;28;20249;-77
2022/07/02 02:17:16;;;;;;;18.37;17.27;;;10.90;99.90;;;;;;4992461;28;20201;-76
2022/07/02 02:19:42;;;;;;;29.10;27.50;;;10.90;99.90;;;;;;4991569;28;20676;-77
2022/07/02 02:22:08;;;;;;;63.93;60.50;;;10.90;99.90;;;;;;4991075;28;20181;-77
2022/07/02 02:24:33;;;;;;;77.70;73.43;;;11.00;99.90;;;;;;4991104;28;20722;-77
2022/07/02 02:27:00;;;;;;;93.57;88.20;;;11.00;99.90;;;;;;5006625;28;20228;-76
2022/07/02 02:29:25;;;;;;;58.17;54.90;;;11.10;99.90;;;;;;4990885;28;20242;-76
2022/07/02 02:31:51;;;;;;;44.40;41.90;;;11.10;99.90;;;;;;4992162;28;20247;-76
2022/07/02 02:34:17;;;;;;;52.47;49.53;;;11.10;99.90;;;;;;4992271;28;20220;-76
2022/07/02 02:36:43;;;;;;;52.17;49.57;;;11.10;99.90;;;;;;5006578;28;20223;-76
2022/07/02 02:39:09;;;;;;;46.83;44.50;;;11.00;99.90;;;;;;5006408;28;20696;-77
2022/07/02 02:41:35;;;;;;;110.10;104.30;;;11.10;99.90;;;;;;5009006;28;20186;-76
2022/07/02 02:44:01;;;;;;;49.47;46.67;;;11.00;99.90;;;;;;4999035;28;20180;-77
2022/07/02 02:46:27;;;;;;;31.37;29.57;;;11.00;99.90;;;;;;4993016;28;20192;-76
2022/07/02 02:48:52;;;;;;;26.83;25.33;;;11.00;99.90;;;;;;4992679;28;20557;-75
2022/07/02 02:51:19;;;;;;;24.43;23.00;;;10.90;99.90;;;;;;4992900;28;20188;-76
2022/07/02 02:53:45;;;;;;;18.07;16.97;;;10.90;99.90;;;;;;4991769;28;20178;-76
2022/07/02 02:56:12;;;;;;;17.13;16.30;;;10.90;99.90;;;;;;4991047;28;20207;-77
2022/07/02 02:58:38;;;;;;;30.10;28.23;;;10.80;99.90;;;;;;5006002;28;20250;-76
2022/07/02 03:01:04;;;;;;;58.03;54.90;;;10.80;99.90;;;;;;4991967;28;20231;-76
2022/07/02 03:03:30;;;;;;;48.47;45.63;;;10.80;99.90;;;;;;5007007;28;20675;-77
2022/07/02 03:05:56;;;;;;;52.37;49.60;;;10.80;99.90;;;;;;4991544;28;20314;-76
2022/07/02 03:08:22;;;;;;;40.07;37.97;;;10.80;99.90;;;;;;4990750;28;20267;-77
2022/07/02 03:10:48;;;;;;;42.10;39.93;;;10.70;99.90;;;;;;4990632;28;20184;-76
2022/07/02 03:13:14;;;;;;;37.00;35.20;;;10.70;99.90;;;;;;4991576;28;20323;-77
2022/07/02 03:15:40;;;;;;;29.77;28.17;;;10.70;99.90;;;;;;4991451;28;20547;-76
2022/07/02 03:18:06;;;;;;;38.37;36.30;;;10.60;99.90;;;;;;4991139;28;20680;-77
2022/07/02 03:20:33;;;;;;;64.03;60.73;;;10.60;99.90;;;;;;4990783;28;20263;-76
2022/07/02 03:23:00;;;;;;;63.77;60.50;;;10.60;99.90;;;;;;4990759;28;20188;-76
2022/07/02 03:25:26;;;;;;;48.23;45.33;;;10.60;99.90;;;;;;4987106;28;20213;-78
2022/07/02 03:27:52;;;;;;;40.03;38.07;;;10.60;99.90;;;;;;4971284;28;20193;-76
2022/07/02 03:30:18;;;;;;;62.03;58.73;;;10.50;99.90;;;;;;4972142;28;20292;-76
2022/07/02 03:32:43;;;;;;;63.60;60.20;;;10.50;99.90;;;;;;4971024;28;20243;-77
2022/07/02 03:35:09;;;;;;;30.53;28.67;;;10.50;99.90;;;;;;4972072;28;20606;-76
2022/07/02 03:37:35;;;;;;;23.00;21.83;;;10.50;99.90;;;;;;4990730;28;20215;-76
2022/07/02 03:40:01;;;;;;;22.57;21.23;;;10.50;99.90;;;;;;4991697;28;20205;-77
2022/07/02 03:42:27;;;;;;;18.97;18.00;;;10.60;99.90;;;;;;5006519;28;20187;-76
2022/07/02 03:44:53;;;;;;;14.10;13.47;;;10.60;99.90;;;;;;5006402;28;20173;-77
2022/07/02 03:47:19;;;;;;;14.23;12.97;;;10.60;99.90;;;;;;4990655;28;20759;-77
2022/07/02 03:49:44;;;;;;;13.47;12.70;;;10.70;99.90;;;;;;4992507;28;20179;-76
2022/07/02 03:52:10;;;;;;;27.60;25.80;;;10.70;99.90;;;;;;4994061;28;20256;-76
2022/07/02 03:54:36;;;;;;;24.73;23.50;;;10.70;99.90;;;;;;4995328;28;20263;-76
2022/07/02 03:57:03;;;;;;;26.53;25.13;;;10.70;99.90;;;;;;4993980;28;20535;-77
2022/07/02 03:59:28;;;;;;;18.70;17.53;;;10.80;99.90;;;;;;4994938;28;20247;-76
2022/07/02 04:01:54;;;;;;;28.97;27.20;;;10.90;99.90;;;;;;4993921;28;20647;-76
2022/07/02 04:04:20;;;;;;;29.43;28.03;;;11.00;99.90;;;;;;5010339;28;20238;-77
2022/07/02 04:06:46;;;;;;;67.20;63.73;;;11.00;99.90;;;;;;5009452;28;20281;-76
2022/07/02 04:09:12;;;;;;;53.63;50.87;;;11.10;99.90;;;;;;4995883;28;20195;-77
2022/07/02 04:11:38;;;;;;;48.10;45.70;;;11.10;99.90;;;;;;4995525;28;20188;-77
2022/07/02 04:14:04;;;;;;;48.77;46.33;;;11.20;99.90;;;;;;4995764;28;20275;-77
2022/07/02 04:16:30;;;;;;;27.30;25.70;;;11.20;99.90;;;;;;5008117;28;20214;-76
2022/07/02 04:18:56;;;;;;;24.07;22.60;;;11.20;99.90;;;;;;5008390;28;20247;-76
2022/07/02 04:21:22;;;;;;;32.20;30.17;;;11.20;99.90;;;;;;4995361;28;20185;-76
2022/07/02 04:23:48;;;;;;;60.03;57.10;;;11.30;99.90;;;;;;5005734;28;20278;-77
2022/07/02 04:26:13;;;;;;;44.20;41.80;;;11.40;99.90;;;;;;5001184;28;20270;-77
2022/07/02 04:28:39;;;;;;;52.57;49.40;;;11.50;99.90;;;;;;4996440;28;20197;-77
2022/07/02 04:31:05;;;;;;;35.63;33.77;;;11.60;99.90;;;;;;4995576;28;20189;-77
2022/07/02 04:33:31;;;;;;;16.53;15.70;;;11.70;99.90;;;;;;4993318;28;20184;-77
2022/07/02 04:35:56;;;;;;;9.83;9.33;;;11.80;99.90;;;;;;4993059;28;20208;-77
2022/07/02 04:38:23;;;;;;;10.77;10.27;;;11.80;99.90;;;;;;4993417;28;20207;-77
2022/07/02 04:40:48;;;;;;;12.80;11.53;;;11.90;99.90;;;;;;4993087;28;20195;-78
2022/07/02 04:43:14;;;;;;;11.03;10.47;;;12.00;99.90;;;;;;5009257;28;20247;-77
2022/07/02 04:45:40;;;;;;;16.03;15.13;;;12.20;99.90;;;;;;4993845;28;20729;-77
2022/07/02 04:48:07;;;;;;;10.63;10.00;;;12.30;99.90;;;;;;4993440;28;20248;-77
2022/07/02 04:50:33;;;;;;;18.00;16.83;;;12.40;99.90;;;;;;5009338;28;20183;-77
2022/07/02 04:52:59;;;;;;;11.93;10.87;;;12.50;99.90;;;;;;4994002;28;20246;-77
2022/07/02 04:55:25;;;;;;;22.50;21.03;;;12.70;99.90;;;;;;4993850;28;20207;-77
2022/07/02 04:57:51;;;;;;;33.67;31.67;;;12.80;99.90;;;;;;5009032;28;20619;-77
2022/07/02 05:00:17;;;;;;;68.00;64.37;;;13.00;99.90;;;;;;5008523;28;20685;-77
2022/07/02 05:02:43;;;;;;;36.93;34.97;;;13.10;99.90;;;;;;4993685;28;20181;-77
2022/07/02 05:05:09;;;;;;;9.00;8.40;;;13.30;99.90;;;;;;4993381;28;20555;-77
2022/07/02 05:07:35;;;;;;;13.17;12.57;;;13.50;99.90;;;;;;5049083;23;20265;-77
2022/07/02 05:10:01;;;;;;;12.50;11.67;;;13.90;99.90;;;;;;5033660;28;20186;-79
2022/07/02 05:12:26;;;;;;;17.90;17.10;;;14.30;99.90;;;;;;5022637;28;20176;-80
2022/07/02 05:14:52;;;;;;;10.50;10.00;;;14.90;99.90;;;;;;5013882;28;20831;-80
2022/07/02 05:17:18;;;;;;;12.20;11.50;;;15.60;99.90;;;;;;5031294;28;20203;-79
2022/07/02 05:19:44;;;;;;;11.50;10.87;;;16.20;99.90;;;;;;5040422;28;20179;-80
2022/07/02 05:22:10;;;;;;;23.03;21.83;;;16.80;99.90;;;;;;5042483;28;20177;-79
2022/07/02 05:24:36;;;;;;;37.40;35.40;;;17.40;99.90;;;;;;5053444;28;20228;-80
2022/07/02 05:27:02;;;;;;;68.10;64.87;;;17.80;99.90;;;;;;5053128;28;20700;-80
2022/07/02 05:29:28;;;;;;;50.80;48.40;;;18.40;99.90;;;;;;5055492;28;20182;-77
2022/07/02 05:31:53;;;;;;;21.73;20.63;;;18.80;99.90;;;;;;5052991;28;20546;-77
2022/07/02 05:34:19;;;;;;;13.83;13.00;;;19.20;99.90;;;;;;5039484;28;20210;-77
2022/07/02 05:36:45;;;;;;;8.50;8.20;;;19.70;99.90;;;;;;5033041;28;20694;-79
2022/07/02 05:39:11;;;;;;;6.53;6.23;;;20.00;99.90;;;;;;5034520;28;20590;-77
2022/07/02 05:41:36;;;;;;;22.03;21.00;;;20.40;99.90;;;;;;5036842;28;20583;-77
2022/07/02 05:44:03;;;;;;;19.23;18.37;;;20.50;99.90;;;;;;5052842;28;20206;-77
2022/07/02 05:46:28;;;;;;;11.43;10.83;;;20.60;99.90;;;;;;5053073;28;20275;-80
2022/07/02 05:48:54;;;;;;;14.85;14.25;;;20.50;99.90;;;;;;5053858;28;20218;-77
2022/07/02 05:51:20;;;;;;;13.88;13.27;;;21.10;99.90;;;;;;5054186;28;20182;-77
2022/07/02 05:53:46;;;;;;;20.00;18.70;;;21.20;99.90;;;;;;5035312;28;20278;-78
2022/07/02 05:56:12;;;;;;;18.92;18.02;;;21.60;99.90;;;;;;5037043;28;20220;-78
2022/07/02 05:58:38;;;;;;;20.52;18.98;;;22.00;99.90;;;;;;5053002;28;20210;-78
2022/07/02 06:01:04;;;;;;;17.92;17.00;;;22.30;99.90;;;;;;5053550;28;20181;-79
2022/07/02 06:03:30;;;;;;;17.33;16.48;;;22.50;99.90;;;;;;5036010;28;20179;-77
2022/07/02 06:08:40;;;;;;;10.93;10.35;;;22.30;99.90;;;;;;5037390;28;20611;-78
2022/07/02 06:11:06;;;;;;;5.43;5.22;;;22.30;99.90;;;;;;5033331;28;20175;-78
2022/07/02 06:13:32;;;;;;;4.30;4.10;;;22.80;99.90;;;;;;5051828;28;20231;-78
2022/07/02 06:15:58;;;;;;;3.38;3.28;;;23.40;99.90;;;;;;5059798;28;20198;-78
2022/07/02 06:18:24;;;;;;;4.70;4.50;;;23.90;99.90;;;;;;5070613;28;20237;-78
2022/07/02 06:20:51;;;;;;;4.22;3.97;;;24.10;99.90;;;;;;5059823;28;20186;-78
2022/07/02 06:23:19;;;;;;;5.03;4.57;;;24.30;99.90;;;;;;5036443;28;20183;-78
2022/07/02 06:25:45;;;;;;;3.47;3.35;;;24.30;99.90;;;;;;5033441;28;20183;-78
2022/07/02 06:28:11;;;;;;;4.38;4.18;;;24.20;99.90;;;;;;5031292;28;20210;-77
2022/07/02 06:30:37;;;;;;;3.92;3.83;;;24.40;99.90;;;;;;5035239;28;20182;-77
2022/07/02 06:33:03;;;;;;;4.55;4.20;;;24.70;99.90;;;;;;5045622;28;20194;-77
2022/07/02 06:35:28;;;;;;;3.85;3.65;;;24.70;99.90;;;;;;5055033;28;20261;-78
2022/07/02 06:37:55;;;;;;;3.40;3.30;;;24.60;99.90;;;;;;5051918;28;20305;-78
2022/07/02 06:40:21;;;;;;;4.15;3.85;;;24.30;99.90;;;;;;5053566;28;20262;-78
2022/07/02 06:42:46;;;;;;;3.67;3.58;;;24.50;99.90;;;;;;5043735;28;20233;-77
2022/07/02 06:45:12;;;;;;;7.15;6.53;;;24.50;99.90;;;;;;5035632;28;20226;-75
2022/07/02 06:47:42;;;;;;;5.38;5.13;;;24.00;99.90;;;;;;5030316;28;20248;-75
2022/07/02 06:50:09;;;;;;;4.65;4.45;;;24.00;99.90;;;;;;5033222;28;20185;-76
2022/07/02 06:52:35;;;;;;;6.20;6.00;;;24.20;99.90;;;;;;5039937;28;20216;-74
2022/07/02 06:55:00;;;;;;;6.28;6.07;;;24.40;99.90;;;;;;5050560;28;20213;-75
2022/07/02 06:57:26;;;;;;;5.47;5.18;;;24.30;99.90;;;;;;5049272;28;20224;-75
2022/07/02 06:59:53;;;;;;;4.97;4.78;;;23.90;99.90;;;;;;5050821;28;20201;-75
2022/07/02 07:02:19;;;;;;;5.93;5.72;;;24.00;99.90;;;;;;5044861;28;20530;-75
2022/07/02 07:04:45;;;;;;;5.63;5.30;;;23.80;99.90;;;;;;5029129;28;20175;-75
2022/07/02 07:07:11;;;;;;;10.48;10.07;;;23.70;99.90;;;;;;5029081;28;20253;-75
2022/07/02 07:09:38;;;;;;;7.97;7.68;;;23.40;99.90;;;;;;5029362;28;20234;-75
2022/07/02 07:12:04;;;;;;;14.80;14.18;;;23.40;99.90;;;;;;5032128;28;20705;-75
2022/07/02 07:14:31;;;;;;;12.95;12.30;;;23.50;99.90;;;;;;5050899;28;20248;-76
2022/07/02 07:16:57;;;;;;;8.10;7.78;;;23.60;99.90;;;;;;5049860;28;20221;-75
2022/07/02 07:19:23;;;;;;;12.38;11.88;;;23.50;99.90;;;;;;5049852;28;20210;-75
2022/07/02 07:21:49;;;;;;;14.70;14.10;;;23.50;99.90;;;;;;5048828;28;20189;-74
2022/07/02 07:24:15;;;;;;;12.95;12.30;;;23.30;99.90;;;;;;5032592;28;20560;-75
2022/07/02 07:26:44;;;;;;;6.75;6.55;;;23.60;99.90;;;;;;5033295;28;20291;-75
2022/07/02 07:29:10;;;;;;;5.38;5.07;;;23.80;99.90;;;;;;5033160;28;20578;-75
2022/07/02 07:31:37;;;;;;;5.55;5.40;;;23.90;99.90;;;;;;5034269;28;20210;-74
2022/07/02 07:34:04;;;;;;;4.35;4.15;;;24.00;99.90;;;;;;5053081;28;20214;-77
2022/07/02 07:36:30;;;;;;;7.38;7.07;;;24.30;99.90;;;;;;5053952;28;20666;-75
2022/07/02 07:38:56;;;;;;;5.32;5.13;;;24.20;99.90;;;;;;5049734;28;20206;-76
2022/07/02 07:41:23;;;;;;;6.55;6.20;;;24.30;99.90;;;;;;5053544;28;20231;-75
2022/07/02 07:43:49;;;;;;;6.40;3.38;;;24.50;99.90;;;;;;5049890;28;20182;-76
2022/07/02 07:46:15;;;;;;;3.38;3.25;;;24.80;99.90;;;;;;5052974;28;20206;-77
2022/07/02 07:48:41;;;;;;;6.57;6.38;;;24.90;99.90;;;;;;5039223;28;20274;-77
2022/07/02 07:51:07;;;;;;;3.58;3.47;;;24.60;99.90;;;;;;5034053;28;20191;-76
2022/07/02 07:53:33;;;;;;;2.83;2.72;;;24.40;99.90;;;;;;5032936;28;20186;-76
2022/07/02 07:56:00;;;;;;;2.80;2.60;;;24.20;99.90;;;;;;5033534;28;20222;-77
2022/07/02 07:58:26;;;;;;;4.43;4.22;;;24.30;99.90;;;;;;5033911;28;20218;-76
2022/07/02 08:00:52;;;;;;;4.53;4.43;;;24.30;99.90;;;;;;5068884;28;20175;-75
2022/07/02 08:03:19;;;;;;;6.25;5.97;;;24.50;99.90;;;;;;5052300;28;20177;-77
2022/07/02 08:05:53;;;;;;;4.15;3.95;;;23.90;99.90;;;;;;5050782;28;20673;-76
2022/07/02 08:08:20;;;;;;;3.70;3.60;;;23.80;99.90;;;;;;5052402;28;20196;-76
2022/07/02 08:10:46;;;;;;;4.50;4.30;;;23.90;99.90;;;;;;5052275;28;20190;-76
2022/07/02 08:13:12;;;;;;;5.53;5.32;;;24.40;99.90;;;;;;5041792;28;20191;-76
2022/07/02 08:15:38;;;;;;;5.03;4.82;;;24.30;99.90;;;;;;5033667;28;20203;-76
2022/07/02 08:18:04;;;;;;;4.85;4.72;;;24.30;99.90;;;;;;5044556;28;20214;-77
2022/07/02 08:20:30;;;;;;;5.18;4.90;;;24.30;99.90;;;;;;5034895;28;20179;-74
2022/07/02 08:22:56;;;;;;;6.20;5.97;;;24.30;99.90;;;;;;5039025;28;20526;-78
2022/07/02 08:25:22;;;;;;;5.38;5.18;;;24.40;99.90;;;;;;5052053;28;20185;-77
2022/07/02 08:27:48;;;;;;;6.68;6.45;;;24.60;99.90;;;;;;5052717;28;20335;-76
2022/07/02 08:30:13;;;;;;;7.38;7.07;;;25.00;99.90;;;;;;5052287;28;20181;-75
2022/07/02 08:32:39;;;;;;;4.70;4.50;;;25.30;99.20;;;;;;5052385;28;20233;-76
2022/07/02 08:35:06;;;;;;;5.07;4.85;;;25.10;98.20;;;;;;5049552;28;20181;-76
2022/07/02 08:37:32;;;;;;;4.70;4.60;;;24.90;99.00;;;;;;5044269;28;20569;-75
2022/07/02 08:39:58;;;;;;;6.15;5.53;;;24.70;98.60;;;;;;5053545;28;20171;-76
2022/07/02 08:42:29;;;;;;;3.95;3.75;;;24.70;98.70;;;;;;5053275;28;20175;-76
2022/07/02 08:44:58;;;;;;;4.20;4.10;;;24.70;98.00;;;;;;5044030;28;20302;-79
2022/07/02 08:47:25;;;;;;;3.80;3.70;;;25.00;97.20;;;;;;5037516;28;20202;-79
2022/07/02 08:49:53;;;;;;;4.25;3.95;;;25.30;95.80;;;;;;5038714;28;20550;-80
2022/07/02 08:52:21;;;;;;;5.82;5.63;;;25.50;96.80;;;;;;5038811;28;20260;-79
2022/07/02 08:54:47;;;;;;;4.53;4.20;;;25.90;96.60;;;;;;5049989;28;20754;-80
2022/07/02 08:57:48;;;;;;;4.90;4.53;;;26.00;94.90;;;;;;5057861;28;20709;-77
2022/07/02 09:00:17;;;;;;;4.10;3.80;;;25.90;94.80;;;;;;5060853;28;20189;-79
2022/07/02 09:02:44;;;;;;;4.07;3.88;;;25.50;94.30;;;;;;5059511;28;20313;-80
2022/07/02 09:05:11;;;;;;;4.65;4.47;;;25.60;93.40;;;;;;5043140;28;20182;-80
2022/07/02 09:07:39;;;;;;;4.07;3.88;;;25.70;92.80;;;;;;5038525;28;20222;-79
2022/07/02 09:10:06;;;;;;;3.83;3.55;;;26.20;92.10;;;;;;5038667;28;20246;-79
2022/07/02 09:12:33;;;;;;;3.30;3.00;;;26.70;90.80;;;;;;5038943;28;20241;-80
2022/07/02 09:15:00;;;;;;;3.28;3.00;;;26.50;90.30;;;;;;5053988;28;20190;-79
2022/07/02 09:17:26;;;;;;;3.20;2.92;;;26.10;90.00;;;;;;5058336;28;20709;-80
2022/07/02 09:19:52;;;;;;;3.20;3.10;;;26.10;89.60;;;;;;5059283;28;20183;-80
2022/07/02 09:22:17;;;;;;;3.47;3.38;;;26.30;87.60;;;;;;5060437;28;20554;-82
2022/07/02 09:24:43;;;;;;;10.05;9.65;;;26.60;86.30;;;;;;5050389;28;20175;-78
2022/07/02 09:27:12;;;;;;;18.13;17.33;;;26.80;84.70;;;;;;5040503;28;20266;-81
2022/07/02 09:29:45;;;;;;;14.80;14.20;;;26.40;83.70;;;;;;5039796;28;20371;-82
2022/07/02 09:32:12;;;;;;;15.15;14.45;;;26.60;84.30;;;;;;5042902;28;20206;-82
2022/07/02 09:34:46;;;;;;;23.17;22.13;;;26.60;83.10;;;;;;5060093;28;20194;-81
2022/07/02 09:37:18;;;;;;;22.90;21.65;;;26.70;81.40;;;;;;5059397;28;20239;-80
2022/07/02 09:39:45;;;;;;;11.27;10.63;;;26.60;80.90;;;;;;5069353;28;20206;-79
2022/07/02 09:42:12;;;;;;;39.30;37.47;;;26.80;80.90;;;;;;5063177;28;20220;-80
2022/07/02 09:44:47;;;;;;;33.45;31.90;;;26.90;76.60;;;;;;5036090;28;20282;-80
2022/07/02 09:47:14;;;;;;;43.38;41.38;;;27.50;77.20;;;;;;5035189;28;20616;-79
2022/07/02 09:49:49;;;;;;;40.47;38.58;;;27.20;74.80;;;;;;5034991;28;20175;-79
2022/07/02 09:52:17;;;;;;;45.13;43.08;;;26.80;77.60;;;;;;5040025;28;20170;-80
2022/07/02 09:54:43;;;;;;;56.72;54.05;;;26.70;75.00;;;;;;5055776;28;20249;-79
2022/07/02 09:57:11;;;;;;;38.53;36.67;;;27.00;74.70;;;;;;5048917;28;20631;-80
2022/07/02 09:59:38;;;;;;;45.55;43.47;;;27.00;72.50;;;;;;5041703;28;20211;-78
2022/07/02 10:02:05;;;;;;;41.30;39.40;;;27.30;73.60;;;;;;5036464;28;20802;-80
2022/07/02 10:04:32;;;;;;;33.33;31.83;;;27.30;73.10;;;;;;5050648;28;20737;-78
2022/07/02 10:06:59;;;;;;;29.05;27.77;;;27.10;73.70;;;;;;5039865;28;20218;-80
2022/07/02 10:09:27;;;;;;;24.08;23.00;;;27.00;70.50;;;;;;5045958;28;20214;-79
2022/07/02 10:11:54;;;;;;;42.45;40.50;;;26.70;71.50;;;;;;5049958;28;20183;-80
2022/07/02 10:14:21;;;;;;;28.30;26.83;;;26.80;73.40;;;;;;5063029;28;20725;-81
2022/07/02 10:16:47;;;;;;;30.00;28.65;;;27.40;70.50;;;;;;5054759;28;20206;-86
2022/07/02 10:19:15;;;;;;;9.15;8.45;;;27.10;72.50;;;;;;5057073;28;20205;-81
2022/07/02 10:21:42;;;;;;;8.02;7.72;;;27.10;67.40;;;;;;5056426;28;20674;-80
2022/07/02 10:24:09;;;;;;;5.78;5.57;;;27.50;65.70;;;;;;5052593;28;20269;-82
2022/07/02 10:26:35;;;;;;;9.13;8.73;;;27.30;63.90;;;;;;5053831;28;20229;-82
2022/07/02 10:29:02;;;;;;;9.10;8.60;;;27.50;65.30;;;;;;5045504;28;20189;-82
2022/07/02 10:31:41;;;;;;;17.63;16.92;;;28.10;62.40;;;;;;5056358;28;20253;-82
2022/07/02 10:34:28;;;;;;;20.80;19.92;;;28.50;59.40;;;;;;5036606;28;20183;-83
2022/07/02 10:36:54;;;;;;;20.65;19.73;;;28.90;58.10;;;;;;5032768;28;20209;-83
2022/07/02 10:39:20;;;;;;;20.90;20.02;;;29.10;59.90;;;;;;5032716;28;20210;-82
2022/07/02 10:41:46;;;;;;;22.98;21.95;;;29.10;60.10;;;;;;5033758;28;20226;-83
2022/07/02 10:44:14;;;;;;;21.15;20.20;;;29.30;59.00;;;;;;5051996;28;20211;-82
2022/07/02 10:46:48;;;;;;;18.85;18.05;;;29.20;57.70;;;;;;5053935;28;20198;-82
2022/07/02 10:49:24;;;;;;;18.27;17.30;;;29.20;58.80;;;;;;5054457;28;20259;-81
2022/07/02 10:51:56;;;;;;;18.58;17.58;;;29.40;58.00;;;;;;5054565;28;20273;-81
2022/07/02 10:54:31;;;;;;;19.92;19.05;;;29.30;58.10;;;;;;5033962;28;20699;-81
2022/07/02 10:56:57;;;;;;;21.88;20.88;;;29.70;55.90;;;;;;5033457;28;20213;-82
2022/07/02 10:59:38;;;;;;;23.75;22.70;;;29.60;57.00;;;;;;5034063;28;20302;-82
2022/07/02 11:02:09;;;;;;;18.27;17.38;;;29.80;56.30;;;;;;5035854;28;20182;-83
2022/07/02 11:04:36;;;;;;;23.80;22.75;;;29.70;57.50;;;;;;5034257;28;20186;-83
2022/07/02 11:07:13;;;;;;;15.48;14.80;;;29.80;57.20;;;;;;5044506;23;20736;-76
2022/07/02 11:09:50;;;;;;;14.35;13.75;;;29.40;55.60;;;;;;5013567;28;20187;-79
2022/07/02 11:12:27;;;;;;;20.40;19.55;;;29.40;53.30;;;;;;5017136;28;20192;-80
2022/07/02 11:14:55;;;;;;;21.58;20.63;;;29.40;54.10;;;;;;5017487;28;20182;-80
2022/07/02 11:17:24;;;;;;;21.10;20.15;;;29.80;54.50;;;;;;5028126;28;20206;-79
2022/07/02 11:19:58;;;;;;;29.17;27.88;;;30.20;54.20;;;;;;5040138;28;20650;-80
2022/07/02 11:22:31;;;;;;;32.55;30.98;;;30.10;52.10;;;;;;5038037;28;20198;-79
2022/07/02 11:24:57;;;;;;;25.40;23.98;;;30.00;54.20;;;;;;5039117;28;20183;-80
2022/07/02 11:27:22;;;;;;;16.65;15.95;;;30.20;53.30;;;;;;5038349;28;20205;-80
2022/07/02 11:29:53;;;;;;;29.80;28.40;;;29.80;54.20;;;;;;5039117;28;20663;-79
2022/07/02 11:32:19;;;;;;;26.35;25.17;;;29.40;52.40;;;;;;5040417;28;20214;-79
2022/07/02 11:34:45;;;;;;;21.27;20.35;;;29.30;52.60;;;;;;5041803;28;20263;-80
2022/07/02 11:37:23;;;;;;;31.02;29.65;;;29.90;53.70;;;;;;5040520;28;20328;-79
2022/07/02 11:39:49;;;;;;;54.47;51.95;;;30.60;52.40;;;;;;5041566;28;20215;-79
2022/07/02 11:42:15;;;;;;;57.05;54.42;;;30.10;49.70;;;;;;5040211;28;20203;-79
2022/07/02 11:44:41;;;;;;;50.03;47.70;;;29.90;51.20;;;;;;5040936;28;20194;-80
2022/07/02 11:47:06;;;;;;;80.25;76.47;;;30.50;50.00;;;;;;5040635;28;20223;-80
2022/07/02 11:49:34;;;;;;;82.97;79.13;;;30.90;48.50;;;;;;5042015;28;20210;-79
2022/07/02 11:52:00;;;;;;;57.00;54.25;;;30.70;49.90;;;;;;5044392;28;20207;-80
2022/07/02 11:54:26;;;;;;;51.47;48.92;;;30.40;51.00;;;;;;5039205;28;20191;-79
2022/07/02 11:56:53;;;;;;;46.03;43.85;;;30.50;51.60;;;;;;5037783;28;20206;-79
2022/07/02 11:59:22;;;;;;;60.58;57.72;;;30.60;51.40;;;;;;5039109;28;20246;-79
2022/07/02 12:01:50;;;;;;;91.13;86.82;;;30.70;50.50;;;;;;5038245;28;20295;-78
2022/07/02 12:04:21;;;;;;;87.47;83.38;;;31.10;48.90;;;;;;5039439;28;20175;-78
2022/07/02 12:06:48;;;;;;;99.53;94.75;;;31.80;49.10;;;;;;5040666;28;20257;-79
2022/07/02 12:09:18;;;;;;;92.75;88.38;;;32.10;49.60;;;;;;5038844;28;20187;-79
2022/07/02 12:11:46;;;;;;;53.33;50.80;;;33.00;49.80;;;;;;5041251;28;20220;-79
2022/07/02 12:14:13;;;;;;;51.95;49.55;;;32.40;46.70;;;;;;5040673;28;20179;-79
2022/07/02 12:16:43;;;;;;;55.53;52.92;;;32.30;47.90;;;;;;5041978;28;20294;-79
2022/07/02 12:19:11;;;;;;;54.83;52.22;;;31.80;49.60;;;;;;5039698;28;20214;-79
2022/07/02 12:21:48;;;;;;;77.13;73.43;;;31.70;48.30;;;;;;5039681;28;20557;-79
2022/07/02 12:24:20;;;;;;;93.80;89.43;;;30.90;50.30;;;;;;5041485;28;20665;-79
2022/07/02 12:26:47;;;;;;;91.47;87.20;;;31.60;49.70;;;;;;5042495;28;20230;-78
2022/07/02 12:32:12;;;;;;;48.45;46.22;;;32.30;48.90;;;;;;5046548;28;20183;-79
2022/07/02 12:34:42;;;;;;;35.65;34.00;;;32.80;47.50;;;;;;5045088;28;20237;-79
2022/07/02 12:37:24;;;;;;;52.38;49.92;;;31.90;47.10;;;;;;5040052;28;20229;-79
2022/07/02 12:39:58;;;;;;;40.78;38.85;;;32.60;46.70;;;;;;5042165;28;20222;-78
2022/07/02 12:42:25;;;;;;;47.33;45.03;;;32.50;46.80;;;;;;5038853;28;20237;-78